sensor_id;sensor_type;location;lat;lon;timestamp;pressure;altitude;pressure_sealevel;temperature;humidity
70370;BME280;57790;51.356;-2.906;2023-11-18T00:00:53;101725.97;;;11.14;100.00
70370;BME280;57790;51.356;-2.906;2023-11-18T00:03:53;101717.34;;;11.12;100.00
70370;BME280;57790;51.356;-2.906;2023-11-18T00:06:54;101709.13;;;11.15;100.00
70370;BME280;57790;51.356;-2.906;2023-11-18T00:09:54;101705.72;;;11.13;100.00
70370;BME280;57790;51.356;-2.906;2023-11-18T00:12:55;101696.25;;;11.10;100.00
70370;BME280;57790;51.356;-2.906;2023-11-18T00:15:55;101696.38;;;11.18;100.00
70370;BME280;57790;51.356;-2.906;2023-11-18T00:18:57;101692.03;;;11.27;100.00
70370;BME280;57790;51.356;-2.906;2023-11-18T00:21:59;101690.09;;;11.19;100.00
70370;BME280;57790;51.356;-2.906;2023-11-18T00:24:59;101667.03;;;11.29;100.00
70370;BME280;57790;51.356;-2.906;2023-11-18T00:28:00;101659.91;;;11.20;100.00
70370;BME280;57790;51.356;-2.906;2023-11-18T00:31:00;101660.91;;;11.19;100.00
70370;BME280;57790;51.356;-2.906;2023-11-18T00:34:00;101643.84;;;11.22;100.00
70370;BME280;57790;51.356;-2.906;2023-11-18T00:37:01;101647.34;;;11.22;100.00
70370;BME280;57790;51.356;-2.906;2023-11-18T00:40:01;101644.50;;;11.33;100.00
70370;BME280;57790;51.356;-2.906;2023-11-18T00:43:03;101629.41;;;11.34;100.00
70370;BME280;57790;51.356;-2.906;2023-11-18T00:46:04;101611.69;;;11.35;100.00
70370;BME280;57790;51.356;-2.906;2023-11-18T00:49:05;101612.13;;;11.30;100.00
70370;BME280;57790;51.356;-2.906;2023-11-18T00:52:05;101601.59;;;11.38;100.00
70370;BME280;57790;51.356;-2.906;2023-11-18T00:55:07;101600.91;;;11.36;100.00
70370;BME280;57790;51.356;-2.906;2023-11-18T00:58:08;101596.97;;;11.40;100.00
70370;BME280;57790;51.356;-2.906;2023-11-18T01:01:08;101590.41;;;11.44;100.00
70370;BME280;57790;51.356;-2.906;2023-11-18T01:04:10;101604.66;;;11.43;100.00
70370;BME280;57790;51.356;-2.906;2023-11-18T01:07:10;101584.09;;;11.45;100.00
70370;BME280;57790;51.356;-2.906;2023-11-18T01:10:11;101562.88;;;11.45;100.00
70370;BME280;57790;51.356;-2.906;2023-11-18T01:13:12;101568.75;;;11.39;100.00
70370;BME280;57790;51.356;-2.906;2023-11-18T01:16:12;101555.88;;;11.44;100.00
70370;BME280;57790;51.356;-2.906;2023-11-18T01:19:14;101549.44;;;11.47;100.00
70370;BME280;57790;51.356;-2.906;2023-11-18T01:22:15;101532.97;;;11.43;100.00
70370;BME280;57790;51.356;-2.906;2023-11-18T01:25:15;101526.22;;;11.49;100.00
70370;BME280;57790;51.356;-2.906;2023-11-18T01:28:19;101527.59;;;11.53;100.00
70370;BME280;57790;51.356;-2.906;2023-11-18T01:31:19;101533.72;;;11.53;100.00
70370;BME280;57790;51.356;-2.906;2023-11-18T01:34:20;101532.16;;;11.60;100.00
70370;BME280;57790;51.356;-2.906;2023-11-18T01:37:21;101525.19;;;11.59;100.00
70370;BME280;57790;51.356;-2.906;2023-11-18T01:40:23;101517.75;;;11.63;100.00
70370;BME280;57790;51.356;-2.906;2023-11-18T01:43:24;101507.84;;;11.55;100.00
70370;BME280;57790;51.356;-2.906;2023-11-18T01:46:24;101505.75;;;11.59;100.00
70370;BME280;57790;51.356;-2.906;2023-11-18T01:49:26;101506.88;;;11.56;100.00
70370;BME280;57790;51.356;-2.906;2023-11-18T01:52:30;101495.66;;;11.62;100.00
70370;BME280;57790;51.356;-2.906;2023-11-18T01:55:30;101502.19;;;11.68;100.00
70370;BME280;57790;51.356;-2.906;2023-11-18T01:58:32;101489.69;;;11.60;100.00
70370;BME280;57790;51.356;-2.906;2023-11-18T02:01:33;101495.38;;;11.66;100.00
70370;BME280;57790;51.356;-2.906;2023-11-18T02:04:35;101478.75;;;11.63;100.00
70370;BME280;57790;51.356;-2.906;2023-11-18T02:07:35;101485.88;;;11.63;100.00
70370;BME280;57790;51.356;-2.906;2023-11-18T02:10:46;101473.81;;;11.69;100.00
70370;BME280;57790;51.356;-2.906;2023-11-18T02:13:48;101465.84;;;11.69;100.00
70370;BME280;57790;51.356;-2.906;2023-11-18T02:16:52;101451.56;;;11.70;100.00
70370;BME280;57790;51.356;-2.906;2023-11-18T02:19:56;101453.94;;;11.73;100.00
70370;BME280;57790;51.356;-2.906;2023-11-18T02:22:57;101441.50;;;11.73;100.00
70370;BME280;57790;51.356;-2.906;2023-11-18T02:25:59;101439.34;;;11.77;100.00
70370;BME280;57790;51.356;-2.906;2023-11-18T02:29:01;101437.16;;;11.72;100.00
70370;BME280;57790;51.356;-2.906;2023-11-18T02:32:33;101420.09;;;11.75;100.00
70370;BME280;57790;51.356;-2.906;2023-11-18T02:35:40;101405.13;;;11.74;100.00
70370;BME280;57790;51.356;-2.906;2023-11-18T02:38:47;101389.88;;;11.76;100.00
70370;BME280;57790;51.356;-2.906;2023-11-18T02:41:52;101381.91;;;11.76;100.00
70370;BME280;57790;51.356;-2.906;2023-11-18T02:44:53;101379.50;;;11.82;100.00
70370;BME280;57790;51.356;-2.906;2023-11-18T02:47:59;101354.06;;;11.80;100.00
70370;BME280;57790;51.356;-2.906;2023-11-18T02:51:00;101373.66;;;11.79;100.00
70370;BME280;57790;51.356;-2.906;2023-11-18T02:54:01;101361.22;;;11.79;100.00
70370;BME280;57790;51.356;-2.906;2023-11-18T02:57:02;101358.41;;;11.81;100.00
70370;BME280;57790;51.356;-2.906;2023-11-18T03:00:06;101353.59;;;11.84;100.00
70370;BME280;57790;51.356;-2.906;2023-11-18T03:03:12;101341.06;;;11.77;100.00
70370;BME280;57790;51.356;-2.906;2023-11-18T03:06:12;101305.94;;;11.83;100.00
70370;BME280;57790;51.356;-2.906;2023-11-18T03:09:12;101309.28;;;11.85;100.00
70370;BME280;57790;51.356;-2.906;2023-11-18T03:12:14;101296.13;;;11.83;100.00
70370;BME280;57790;51.356;-2.906;2023-11-18T03:15:15;101281.56;;;11.87;100.00
70370;BME280;57790;51.356;-2.906;2023-11-18T03:18:17;101278.69;;;11.81;100.00
70370;BME280;57790;51.356;-2.906;2023-11-18T03:21:17;101254.47;;;11.84;100.00
70370;BME280;57790;51.356;-2.906;2023-11-18T03:24:19;101238.75;;;11.90;100.00
70370;BME280;57790;51.356;-2.906;2023-11-18T03:27:20;101237.41;;;11.86;100.00
70370;BME280;57790;51.356;-2.906;2023-11-18T03:30:23;101251.66;;;11.85;100.00
70370;BME280;57790;51.356;-2.906;2023-11-18T03:33:23;101241.84;;;11.86;100.00
70370;BME280;57790;51.356;-2.906;2023-11-18T03:36:23;101228.44;;;11.87;100.00
70370;BME280;57790;51.356;-2.906;2023-11-18T03:39:24;101220.97;;;11.91;100.00
70370;BME280;57790;51.356;-2.906;2023-11-18T03:42:25;101210.84;;;11.95;100.00
70370;BME280;57790;51.356;-2.906;2023-11-18T03:45:25;101210.38;;;11.99;100.00
70370;BME280;57790;51.356;-2.906;2023-11-18T03:48:26;101214.34;;;11.95;100.00
70370;BME280;57790;51.356;-2.906;2023-11-18T03:51:27;101219.66;;;11.95;100.00
70370;BME280;57790;51.356;-2.906;2023-11-18T03:54:28;101224.13;;;11.95;100.00
70370;BME280;57790;51.356;-2.906;2023-11-18T03:57:28;101223.97;;;11.96;100.00
70370;BME280;57790;51.356;-2.906;2023-11-18T04:00:29;101196.75;;;11.94;100.00
70370;BME280;57790;51.356;-2.906;2023-11-18T04:03:30;101196.41;;;11.97;100.00
70370;BME280;57790;51.356;-2.906;2023-11-18T04:06:31;101184.63;;;12.00;100.00
70370;BME280;57790;51.356;-2.906;2023-11-18T04:09:32;101191.94;;;11.98;100.00
70370;BME280;57790;51.356;-2.906;2023-11-18T04:12:33;101185.16;;;12.03;100.00
70370;BME280;57790;51.356;-2.906;2023-11-18T04:15:33;101187.16;;;12.01;100.00
70370;BME280;57790;51.356;-2.906;2023-11-18T04:18:35;101164.53;;;11.97;100.00
70370;BME280;57790;51.356;-2.906;2023-11-18T04:21:35;101151.63;;;12.02;100.00
70370;BME280;57790;51.356;-2.906;2023-11-18T04:24:36;101142.44;;;11.97;100.00
70370;BME280;57790;51.356;-2.906;2023-11-18T04:27:39;101137.50;;;12.02;100.00
70370;BME280;57790;51.356;-2.906;2023-11-18T04:30:40;101132.19;;;12.02;100.00
70370;BME280;57790;51.356;-2.906;2023-11-18T04:33:40;101106.28;;;12.04;100.00
70370;BME280;57790;51.356;-2.906;2023-11-18T04:36:41;101119.56;;;12.04;100.00
70370;BME280;57790;51.356;-2.906;2023-11-18T04:39:41;101101.47;;;12.07;100.00
70370;BME280;57790;51.356;-2.906;2023-11-18T04:42:42;101097.81;;;12.08;100.00
70370;BME280;57790;51.356;-2.906;2023-11-18T04:45:42;101094.16;;;12.09;100.00
70370;BME280;57790;51.356;-2.906;2023-11-18T04:48:43;101096.31;;;12.14;100.00
70370;BME280;57790;51.356;-2.906;2023-11-18T04:51:43;101092.81;;;12.13;100.00
70370;BME280;57790;51.356;-2.906;2023-11-18T04:54:43;101095.31;;;12.15;100.00
70370;BME280;57790;51.356;-2.906;2023-11-18T04:57:44;101094.19;;;12.17;100.00
70370;BME280;57790;51.356;-2.906;2023-11-18T05:00:44;101102.66;;;12.21;100.00
70370;BME280;57790;51.356;-2.906;2023-11-18T05:03:45;101092.00;;;12.21;100.00
70370;BME280;57790;51.356;-2.906;2023-11-18T05:06:45;101090.84;;;12.24;100.00
70370;BME280;57790;51.356;-2.906;2023-11-18T05:09:45;101100.47;;;12.25;100.00
70370;BME280;57790;51.356;-2.906;2023-11-18T05:12:46;101104.63;;;12.27;100.00
70370;BME280;57790;51.356;-2.906;2023-11-18T05:15:55;101105.47;;;12.28;100.00
70370;BME280;57790;51.356;-2.906;2023-11-18T05:18:56;101105.97;;;12.23;100.00
70370;BME280;57790;51.356;-2.906;2023-11-18T05:21:56;101098.31;;;12.28;100.00
70370;BME280;57790;51.356;-2.906;2023-11-18T05:24:57;101120.41;;;12.29;100.00
70370;BME280;57790;51.356;-2.906;2023-11-18T05:27:58;101109.78;;;12.29;100.00
70370;BME280;57790;51.356;-2.906;2023-11-18T05:30:58;101117.94;;;12.27;100.00
70370;BME280;57790;51.356;-2.906;2023-11-18T05:34:01;101120.13;;;12.32;100.00
70370;BME280;57790;51.356;-2.906;2023-11-18T05:37:03;101125.59;;;12.38;100.00
70370;BME280;57790;51.356;-2.906;2023-11-18T05:40:04;101120.09;;;12.40;100.00
70370;BME280;57790;51.356;-2.906;2023-11-18T05:43:08;101128.06;;;12.40;100.00
70370;BME280;57790;51.356;-2.906;2023-11-18T05:46:16;101127.41;;;12.38;100.00
70370;BME280;57790;51.356;-2.906;2023-11-18T05:49:24;101118.13;;;12.34;100.00
70370;BME280;57790;51.356;-2.906;2023-11-18T05:52:25;101110.28;;;12.40;100.00
70370;BME280;57790;51.356;-2.906;2023-11-18T05:55:26;101113.78;;;12.41;100.00
70370;BME280;57790;51.356;-2.906;2023-11-18T05:58:26;101107.81;;;12.47;100.00
70370;BME280;57790;51.356;-2.906;2023-11-18T06:01:29;101100.00;;;12.45;100.00
70370;BME280;57790;51.356;-2.906;2023-11-18T06:04:30;101098.69;;;12.49;100.00
70370;BME280;57790;51.356;-2.906;2023-11-18T06:07:31;101086.72;;;12.45;100.00
70370;BME280;57790;51.356;-2.906;2023-11-18T06:10:31;101089.53;;;12.44;100.00
70370;BME280;57790;51.356;-2.906;2023-11-18T06:13:32;101079.72;;;12.52;100.00
70370;BME280;57790;51.356;-2.906;2023-11-18T06:16:32;101062.28;;;12.50;100.00
70370;BME280;57790;51.356;-2.906;2023-11-18T06:19:33;101060.78;;;12.56;100.00
70370;BME280;57790;51.356;-2.906;2023-11-18T06:22:34;101061.44;;;12.58;100.00
70370;BME280;57790;51.356;-2.906;2023-11-18T06:25:35;101069.56;;;12.56;100.00
70370;BME280;57790;51.356;-2.906;2023-11-18T06:28:39;101063.13;;;12.59;100.00
70370;BME280;57790;51.356;-2.906;2023-11-18T06:31:40;101059.75;;;12.57;100.00
70370;BME280;57790;51.356;-2.906;2023-11-18T06:34:40;101050.78;;;12.58;100.00
70370;BME280;57790;51.356;-2.906;2023-11-18T06:37:41;101047.81;;;12.61;100.00
70370;BME280;57790;51.356;-2.906;2023-11-18T06:40:42;101042.16;;;12.64;100.00
70370;BME280;57790;51.356;-2.906;2023-11-18T06:43:44;101051.94;;;12.71;100.00
70370;BME280;57790;51.356;-2.906;2023-11-18T06:46:56;101047.63;;;12.70;100.00
70370;BME280;57790;51.356;-2.906;2023-11-18T06:49:56;101046.31;;;12.74;100.00
70370;BME280;57790;51.356;-2.906;2023-11-18T06:52:57;101042.63;;;12.75;100.00
70370;BME280;57790;51.356;-2.906;2023-11-18T06:55:59;101037.50;;;12.74;100.00
70370;BME280;57790;51.356;-2.906;2023-11-18T06:59:00;101038.16;;;12.76;100.00
70370;BME280;57790;51.356;-2.906;2023-11-18T07:02:00;101027.81;;;12.81;100.00
70370;BME280;57790;51.356;-2.906;2023-11-18T07:05:00;101026.00;;;12.81;100.00
70370;BME280;57790;51.356;-2.906;2023-11-18T07:08:01;101024.81;;;12.84;100.00
70370;BME280;57790;51.356;-2.906;2023-11-18T07:11:03;101030.13;;;12.84;100.00
70370;BME280;57790;51.356;-2.906;2023-11-18T07:14:04;101029.97;;;12.86;100.00
70370;BME280;57790;51.356;-2.906;2023-11-18T07:17:04;101037.78;;;12.87;100.00
70370;BME280;57790;51.356;-2.906;2023-11-18T07:20:05;101038.47;;;12.89;100.00
70370;BME280;57790;51.356;-2.906;2023-11-18T07:23:06;101041.59;;;12.93;100.00
70370;BME280;57790;51.356;-2.906;2023-11-18T07:26:08;101023.97;;;12.92;100.00
70370;BME280;57790;51.356;-2.906;2023-11-18T07:29:13;101025.28;;;12.96;100.00
70370;BME280;57790;51.356;-2.906;2023-11-18T07:32:14;101033.09;;;12.97;100.00
70370;BME280;57790;51.356;-2.906;2023-11-18T07:35:14;101030.09;;;13.00;100.00
70370;BME280;57790;51.356;-2.906;2023-11-18T07:38:15;101038.25;;;12.99;100.00
70370;BME280;57790;51.356;-2.906;2023-11-18T07:41:16;101023.75;;;13.01;100.00
70370;BME280;57790;51.356;-2.906;2023-11-18T07:44:27;101023.44;;;13.04;100.00
70370;BME280;57790;51.356;-2.906;2023-11-18T07:47:27;101051.06;;;13.03;100.00
70370;BME280;57790;51.356;-2.906;2023-11-18T07:50:28;101044.91;;;13.03;100.00
70370;BME280;57790;51.356;-2.906;2023-11-18T07:53:28;101056.22;;;13.05;100.00
70370;BME280;57790;51.356;-2.906;2023-11-18T07:56:29;101052.72;;;13.04;100.00
70370;BME280;57790;51.356;-2.906;2023-11-18T07:59:32;101065.19;;;13.04;100.00
70370;BME280;57790;51.356;-2.906;2023-11-18T08:02:32;101062.84;;;13.09;100.00
70370;BME280;57790;51.356;-2.906;2023-11-18T08:05:33;101073.13;;;13.12;100.00
70370;BME280;57790;51.356;-2.906;2023-11-18T08:08:34;101054.50;;;13.12;100.00
70370;BME280;57790;51.356;-2.906;2023-11-18T08:11:34;101052.03;;;13.10;100.00
70370;BME280;57790;51.356;-2.906;2023-11-18T08:14:35;101043.22;;;13.18;100.00
70370;BME280;57790;51.356;-2.906;2023-11-18T08:17:36;101045.53;;;13.21;100.00
70370;BME280;57790;51.356;-2.906;2023-11-18T08:20:37;101063.00;;;13.24;100.00
70370;BME280;57790;51.356;-2.906;2023-11-18T08:23:37;101061.88;;;13.18;100.00
70370;BME280;57790;51.356;-2.906;2023-11-18T08:26:38;101060.03;;;13.19;100.00
70370;BME280;57790;51.356;-2.906;2023-11-18T08:29:39;101044.53;;;13.22;100.00
70370;BME280;57790;51.356;-2.906;2023-11-18T08:32:40;101018.25;;;13.19;100.00
70370;BME280;57790;51.356;-2.906;2023-11-18T08:35:44;101031.88;;;13.24;100.00
70370;BME280;57790;51.356;-2.906;2023-11-18T08:38:44;101045.00;;;13.26;100.00
70370;BME280;57790;51.356;-2.906;2023-11-18T08:41:48;101064.13;;;13.29;100.00
70370;BME280;57790;51.356;-2.906;2023-11-18T08:44:50;101055.00;;;13.32;100.00
70370;BME280;57790;51.356;-2.906;2023-11-18T08:47:51;101055.00;;;13.32;100.00
70370;BME280;57790;51.356;-2.906;2023-11-18T08:50:53;101047.31;;;13.29;100.00
70370;BME280;57790;51.356;-2.906;2023-11-18T08:53:53;101044.81;;;13.35;100.00
70370;BME280;57790;51.356;-2.906;2023-11-18T08:56:55;101041.31;;;13.35;100.00
70370;BME280;57790;51.356;-2.906;2023-11-18T08:59:55;101032.16;;;13.37;100.00
70370;BME280;57790;51.356;-2.906;2023-11-18T09:02:59;101039.13;;;13.38;100.00
70370;BME280;57790;51.356;-2.906;2023-11-18T09:06:05;101033.47;;;13.42;100.00
70370;BME280;57790;51.356;-2.906;2023-11-18T09:09:06;101028.13;;;13.42;100.00
70370;BME280;57790;51.356;-2.906;2023-11-18T09:12:11;101048.94;;;13.46;100.00
70370;BME280;57790;51.356;-2.906;2023-11-18T09:15:12;101074.56;;;13.47;100.00
70370;BME280;57790;51.356;-2.906;2023-11-18T09:18:23;101094.03;;;13.48;100.00
70370;BME280;57790;51.356;-2.906;2023-11-18T09:21:25;101086.69;;;13.50;100.00
70370;BME280;57790;51.356;-2.906;2023-11-18T09:24:29;101098.38;;;13.49;100.00
70370;BME280;57790;51.356;-2.906;2023-11-18T09:27:30;101100.84;;;13.50;100.00
70370;BME280;57790;51.356;-2.906;2023-11-18T09:30:32;101086.34;;;13.53;100.00
70370;BME280;57790;51.356;-2.906;2023-11-18T09:33:34;101089.84;;;13.53;100.00
70370;BME280;57790;51.356;-2.906;2023-11-18T09:36:34;101078.34;;;13.53;100.00
70370;BME280;57790;51.356;-2.906;2023-11-18T09:39:34;101088.47;;;13.57;100.00
70370;BME280;57790;51.356;-2.906;2023-11-18T09:42:38;101092.16;;;13.56;100.00
70370;BME280;57790;51.356;-2.906;2023-11-18T09:45:39;101070.00;;;13.56;100.00
70370;BME280;57790;51.356;-2.906;2023-11-18T09:48:50;101089.31;;;13.58;100.00
70370;BME280;57790;51.356;-2.906;2023-11-18T09:52:03;101096.47;;;13.57;100.00
70370;BME280;57790;51.356;-2.906;2023-11-18T09:55:12;101105.81;;;13.61;100.00
70370;BME280;57790;51.356;-2.906;2023-11-18T09:58:20;101116.75;;;13.66;100.00
70370;BME280;57790;51.356;-2.906;2023-11-18T10:01:26;101112.09;;;13.68;100.00
70370;BME280;57790;51.356;-2.906;2023-11-18T10:04:28;101110.97;;;13.63;100.00
70370;BME280;57790;51.356;-2.906;2023-11-18T10:07:29;101107.47;;;13.62;100.00
70370;BME280;57790;51.356;-2.906;2023-11-18T10:10:33;101098.47;;;13.63;100.00
70370;BME280;57790;51.356;-2.906;2023-11-18T10:13:36;101090.78;;;13.68;100.00
70370;BME280;57790;51.356;-2.906;2023-11-18T10:16:41;101112.91;;;13.69;100.00
70370;BME280;57790;51.356;-2.906;2023-11-18T10:19:56;101108.41;;;13.69;100.00
70370;BME280;57790;51.356;-2.906;2023-11-18T10:23:06;101103.09;;;13.69;100.00
70370;BME280;57790;51.356;-2.906;2023-11-18T10:26:10;101101.44;;;13.68;100.00
70370;BME280;57790;51.356;-2.906;2023-11-18T10:29:11;101084.91;;;13.73;100.00
70370;BME280;57790;51.356;-2.906;2023-11-18T10:32:13;101088.94;;;13.69;100.00
70370;BME280;57790;51.356;-2.906;2023-11-18T10:35:19;101092.75;;;13.75;100.00
70370;BME280;57790;51.356;-2.906;2023-11-18T10:38:21;101111.41;;;13.75;100.00
70370;BME280;57790;51.356;-2.906;2023-11-18T10:41:25;101090.25;;;13.73;100.00
70370;BME280;57790;51.356;-2.906;2023-11-18T10:44:26;101117.69;;;13.82;100.00
70370;BME280;57790;51.356;-2.906;2023-11-18T10:47:27;101119.69;;;13.80;100.00
70370;BME280;57790;51.356;-2.906;2023-11-18T10:50:27;101115.19;;;13.80;100.00
70370;BME280;57790;51.356;-2.906;2023-11-18T10:53:32;101090.22;;;13.81;100.00
70370;BME280;57790;51.356;-2.906;2023-11-18T10:56:34;101099.22;;;13.80;100.00
70370;BME280;57790;51.356;-2.906;2023-11-18T10:59:34;101090.03;;;13.83;100.00
70370;BME280;57790;51.356;-2.906;2023-11-18T11:02:36;101095.66;;;13.88;100.00
70370;BME280;57790;51.356;-2.906;2023-11-18T11:05:40;101089.03;;;13.84;100.00
70370;BME280;57790;51.356;-2.906;2023-11-18T11:08:42;101100.50;;;13.84;100.00
70370;BME280;57790;51.356;-2.906;2023-11-18T11:11:49;101109.81;;;13.88;100.00
70370;BME280;57790;51.356;-2.906;2023-11-18T11:15:13;101098.00;;;13.91;100.00
70370;BME280;57790;51.356;-2.906;2023-11-18T11:18:22;101072.34;;;13.90;100.00
70370;BME280;57790;51.356;-2.906;2023-11-18T11:21:32;101052.50;;;13.92;100.00
70370;BME280;57790;51.356;-2.906;2023-11-18T11:27:50;101062.09;;;14.02;100.00
70370;BME280;57790;51.356;-2.906;2023-11-18T11:31:14;101080.56;;;14.03;100.00
70370;BME280;57790;51.356;-2.906;2023-11-18T11:34:18;101068.75;;;14.06;100.00
70370;BME280;57790;51.356;-2.906;2023-11-18T11:37:25;101074.72;;;14.08;100.00
70370;BME280;57790;51.356;-2.906;2023-11-18T11:40:26;101080.34;;;14.13;100.00
70370;BME280;57790;51.356;-2.906;2023-11-18T11:43:29;101081.34;;;14.12;100.00
70370;BME280;57790;51.356;-2.906;2023-11-18T11:46:30;101070.88;;;14.10;100.00
70370;BME280;57790;51.356;-2.906;2023-11-18T11:49:41;101064.72;;;14.10;100.00
70370;BME280;57790;51.356;-2.906;2023-11-18T11:52:51;101079.69;;;14.11;100.00
70370;BME280;57790;51.356;-2.906;2023-11-18T11:55:54;101095.06;;;14.09;100.00
70370;BME280;57790;51.356;-2.906;2023-11-18T11:59:05;101112.53;;;14.11;100.00
70370;BME280;57790;51.356;-2.906;2023-11-18T12:02:05;101094.50;;;14.13;100.00
70370;BME280;57790;51.356;-2.906;2023-11-18T12:05:08;101086.00;;;14.18;100.00
70370;BME280;57790;51.356;-2.906;2023-11-18T12:08:08;101078.16;;;14.16;100.00
70370;BME280;57790;51.356;-2.906;2023-11-18T12:11:13;101099.47;;;14.16;100.00
70370;BME280;57790;51.356;-2.906;2023-11-18T12:14:16;101088.31;;;14.21;100.00
70370;BME280;57790;51.356;-2.906;2023-11-18T12:17:22;101089.59;;;14.25;100.00
70370;BME280;57790;51.356;-2.906;2023-11-18T12:20:43;101069.09;;;14.25;100.00
70370;BME280;57790;51.356;-2.906;2023-11-18T12:24:16;101067.06;;;14.27;100.00
70370;BME280;57790;51.356;-2.906;2023-11-18T12:30:43;101077.22;;;14.32;100.00
70370;BME280;57790;51.356;-2.906;2023-11-18T12:40:57;101074.56;;;14.32;100.00
70370;BME280;57790;51.356;-2.906;2023-11-18T12:47:24;101078.88;;;14.33;100.00
70370;BME280;57790;51.356;-2.906;2023-11-18T12:50:29;101074.47;;;14.40;100.00
70370;BME280;57790;51.356;-2.906;2023-11-18T12:53:32;101067.66;;;14.38;100.00
70370;BME280;57790;51.356;-2.906;2023-11-18T12:56:36;101051.66;;;14.38;100.00
70370;BME280;57790;51.356;-2.906;2023-11-18T12:59:37;101049.47;;;14.41;100.00
70370;BME280;57790;51.356;-2.906;2023-11-18T13:02:37;101045.13;;;14.40;100.00
70370;BME280;57790;51.356;-2.906;2023-11-18T13:05:39;101043.31;;;14.41;100.00
70370;BME280;57790;51.356;-2.906;2023-11-18T13:08:40;101042.47;;;14.40;100.00
70370;BME280;57790;51.356;-2.906;2023-11-18T13:11:41;101037.13;;;14.40;100.00
70370;BME280;57790;51.356;-2.906;2023-11-18T13:14:43;101050.47;;;14.40;100.00
70370;BME280;57790;51.356;-2.906;2023-11-18T13:18:04;101035.28;;;14.41;100.00
70370;BME280;57790;51.356;-2.906;2023-11-18T13:21:07;101027.09;;;14.42;100.00
70370;BME280;57790;51.356;-2.906;2023-11-18T13:24:07;101039.44;;;14.43;100.00
70370;BME280;57790;51.356;-2.906;2023-11-18T13:27:08;101040.78;;;14.47;100.00
70370;BME280;57790;51.356;-2.906;2023-11-18T13:30:09;101032.78;;;14.47;100.00
70370;BME280;57790;51.356;-2.906;2023-11-18T13:33:13;101032.78;;;14.47;100.00
70370;BME280;57790;51.356;-2.906;2023-11-18T13:36:14;101039.97;;;14.47;100.00
70370;BME280;57790;51.356;-2.906;2023-11-18T13:39:19;101035.09;;;14.50;100.00
70370;BME280;57790;51.356;-2.906;2023-11-18T13:42:21;101023.22;;;14.53;100.00
70370;BME280;57790;51.356;-2.906;2023-11-18T13:45:23;101031.41;;;14.51;100.00
70370;BME280;57790;51.356;-2.906;2023-11-18T13:48:23;101032.88;;;14.54;100.00
70370;BME280;57790;51.356;-2.906;2023-11-18T13:51:24;101030.03;;;14.55;100.00
70370;BME280;57790;51.356;-2.906;2023-11-18T13:54:24;101006.28;;;14.61;100.00
70370;BME280;57790;51.356;-2.906;2023-11-18T13:57:25;101021.31;;;14.62;100.00
70370;BME280;57790;51.356;-2.906;2023-11-18T14:00:27;101011.63;;;14.61;100.00
70370;BME280;57790;51.356;-2.906;2023-11-18T14:03:27;101005.94;;;14.64;100.00
70370;BME280;57790;51.356;-2.906;2023-11-18T14:06:28;101007.41;;;14.66;100.00
70370;BME280;57790;51.356;-2.906;2023-11-18T14:09:28;100996.28;;;14.63;100.00
70370;BME280;57790;51.356;-2.906;2023-11-18T14:12:30;100982.94;;;14.63;100.00
70370;BME280;57790;51.356;-2.906;2023-11-18T14:15:30;100989.28;;;14.62;100.00
70370;BME280;57790;51.356;-2.906;2023-11-18T14:18:30;100985.59;;;14.63;100.00
70370;BME280;57790;51.356;-2.906;2023-11-18T14:21:32;100979.91;;;14.66;100.00
70370;BME280;57790;51.356;-2.906;2023-11-18T14:24:35;100980.91;;;14.65;100.00
70370;BME280;57790;51.356;-2.906;2023-11-18T14:27:35;100999.59;;;14.65;100.00
70370;BME280;57790;51.356;-2.906;2023-11-18T14:30:37;101003.09;;;14.65;100.00
70370;BME280;57790;51.356;-2.906;2023-11-18T14:33:37;101008.25;;;14.67;100.00
70370;BME280;57790;51.356;-2.906;2023-11-18T14:36:38;101028.38;;;14.69;100.00
70370;BME280;57790;51.356;-2.906;2023-11-18T14:39:39;101024.06;;;14.68;100.00
70370;BME280;57790;51.356;-2.906;2023-11-18T14:42:41;101016.88;;;14.69;100.00
70370;BME280;57790;51.356;-2.906;2023-11-18T14:45:43;101006.22;;;14.69;100.00
70370;BME280;57790;51.356;-2.906;2023-11-18T14:48:44;101010.09;;;14.66;100.00
70370;BME280;57790;51.356;-2.906;2023-11-18T14:51:46;101027.56;;;14.69;100.00
70370;BME280;57790;51.356;-2.906;2023-11-18T14:54:47;101005.19;;;14.70;100.00
70370;BME280;57790;51.356;-2.906;2023-11-18T14:57:47;101018.53;;;14.70;100.00
70370;BME280;57790;51.356;-2.906;2023-11-18T15:00:48;101023.06;;;14.69;100.00
70370;BME280;57790;51.356;-2.906;2023-11-18T15:03:48;101023.88;;;14.70;100.00
70370;BME280;57790;51.356;-2.906;2023-11-18T15:06:48;101022.03;;;14.70;100.00
70370;BME280;57790;51.356;-2.906;2023-11-18T15:09:52;101023.69;;;14.71;100.00
70370;BME280;57790;51.356;-2.906;2023-11-18T15:12:57;101029.03;;;14.71;100.00
70370;BME280;57790;51.356;-2.906;2023-11-18T15:16:01;101013.84;;;14.72;100.00
70370;BME280;57790;51.356;-2.906;2023-11-18T15:19:01;101011.56;;;14.69;100.00
70370;BME280;57790;51.356;-2.906;2023-11-18T15:22:02;101011.56;;;14.69;100.00
70370;BME280;57790;51.356;-2.906;2023-11-18T15:25:02;101004.38;;;14.69;100.00
70370;BME280;57790;51.356;-2.906;2023-11-18T15:28:03;101002.53;;;14.70;100.00
70370;BME280;57790;51.356;-2.906;2023-11-18T15:31:14;101005.19;;;14.70;100.00
70370;BME280;57790;51.356;-2.906;2023-11-18T15:34:14;101008.88;;;14.69;100.00
70370;BME280;57790;51.356;-2.906;2023-11-18T15:37:15;101006.59;;;14.66;100.00
70370;BME280;57790;51.356;-2.906;2023-11-18T15:40:16;101003.53;;;14.69;100.00
70370;BME280;57790;51.356;-2.906;2023-11-18T15:43:20;101000.69;;;14.70;100.00
70370;BME280;57790;51.356;-2.906;2023-11-18T15:46:22;100999.03;;;14.69;100.00